Time;durP1;ratioP1;P1;durP2;ratioP2;P2;SDS_P1;SDS_P2;PMS_P1;PMS_P2;Temp;Humidity;BMP_temperature;BMP_pressure;BME280_temperature;BME280_humidity;BME280_pressure;Samples;Min_cycle;Max_cycle;Signal;HPM_P1;HPM_P2
2023/12/18 00:00:22;;;;;;;17.30;6.30;;;;;;;;;;5021640;28;21140;-72
2023/12/18 00:02:48;;;;;;;14.77;6.03;;;;;;;;;;5025832;28;20041;-72
2023/12/18 00:05:14;;;;;;;16.23;5.63;;;;;;;;;;5024661;28;20056;-71
2023/12/18 00:07:40;;;;;;;13.65;5.63;;;;;;;;;;5026400;28;20499;-72
2023/12/18 00:10:06;;;;;;;17.00;5.65;;;;;;;;;;5028131;28;20046;-71
2023/12/18 00:12:36;;;;;;;19.92;5.43;;;;;;;;;;5024220;28;20053;-72
2023/12/18 00:15:02;;;;;;;16.67;5.88;;;;;;;;;;5023648;28;20053;-71
2023/12/18 00:17:31;;;;;;;14.77;5.40;;;;;;;;;;5032728;28;20132;-72
2023/12/18 00:19:57;;;;;;;14.10;5.85;;;;;;;;;;5023574;28;20060;-72
2023/12/18 00:22:23;;;;;;;20.75;6.15;;;;;;;;;;5022734;28;20037;-71
2023/12/18 00:24:49;;;;;;;18.00;5.30;;;;;;;;;;5017391;28;20115;-72
2023/12/18 00:27:24;;;;;;;14.90;6.25;;;;;;;;;;5022014;28;20046;-72
2023/12/18 00:29:50;;;;;;;13.07;5.35;;;;;;;;;;5029501;28;20397;-72
2023/12/18 00:32:16;;;;;;;13.93;5.32;;;;;;;;;;5028218;28;20038;-72
2023/12/18 00:34:42;;;;;;;15.85;4.93;;;;;;;;;;5029429;28;20045;-71
2023/12/18 00:37:08;;;;;;;19.65;5.70;;;;;;;;;;5021310;28;20041;-72
2023/12/18 00:39:35;;;;;;;17.95;5.55;;;;;;;;;;5024568;28;20437;-72
2023/12/18 00:42:01;;;;;;;22.27;5.88;;;;;;;;;;5025184;28;20045;-72
2023/12/18 00:44:27;;;;;;;15.20;5.43;;;;;;;;;;5027766;28;20107;-72
2023/12/18 00:46:53;;;;;;;20.63;6.20;;;;;;;;;;5025568;28;20472;-71
2023/12/18 00:49:22;;;;;;;19.00;6.50;;;;;;;;;;5032473;28;20042;-71
2023/12/18 00:51:48;;;;;;;14.25;6.22;;;;;;;;;;5029043;28;20930;-72
2023/12/18 00:54:14;;;;;;;11.68;4.47;;;;;;;;;;5026770;28;20347;-72
2023/12/18 00:56:40;;;;;;;14.45;5.25;;;;;;;;;;5030921;28;20560;-71
2023/12/18 00:59:06;;;;;;;17.55;5.68;;;;;;;;;;5026460;28;20137;-72
2023/12/18 01:01:32;;;;;;;20.10;5.32;;;;;;;;;;5026675;28;20060;-72
2023/12/18 01:03:58;;;;;;;19.92;5.78;;;;;;;;;;5025689;28;20096;-72
2023/12/18 01:06:24;;;;;;;13.32;5.78;;;;;;;;;;5028381;28;20149;-72
2023/12/18 01:08:50;;;;;;;18.00;6.05;;;;;;;;;;5029828;28;20049;-72
2023/12/18 01:11:16;;;;;;;15.40;5.70;;;;;;;;;;5025624;28;20049;-72
2023/12/18 01:13:42;;;;;;;19.77;6.07;;;;;;;;;;5032325;28;20559;-72
2023/12/18 01:16:08;;;;;;;22.13;5.65;;;;;;;;;;5026980;28;20990;-72
2023/12/18 01:18:37;;;;;;;17.00;5.30;;;;;;;;;;5025650;28;20048;-72
2023/12/18 01:21:03;;;;;;;24.60;6.10;;;;;;;;;;5025724;28;20033;-72
2023/12/18 01:23:29;;;;;;;14.93;5.75;;;;;;;;;;5024281;28;20504;-72
2023/12/18 01:25:55;;;;;;;14.82;5.03;;;;;;;;;;5032241;28;20114;-72
2023/12/18 01:28:21;;;;;;;15.98;5.03;;;;;;;;;;5024386;28;20488;-72
2023/12/18 01:30:51;;;;;;;14.88;5.68;;;;;;;;;;5032061;28;20045;-72
2023/12/18 01:33:17;;;;;;;17.77;5.05;;;;;;;;;;5022133;28;20050;-72
2023/12/18 01:35:43;;;;;;;18.85;5.75;;;;;;;;;;5023053;28;20500;-71
2023/12/18 01:38:09;;;;;;;17.33;6.15;;;;;;;;;;5028163;28;20041;-72
2023/12/18 01:40:35;;;;;;;18.42;5.20;;;;;;;;;;5025751;28;20044;-72
2023/12/18 01:43:01;;;;;;;15.60;5.63;;;;;;;;;;5028045;28;20037;-72
2023/12/18 01:45:30;;;;;;;19.33;5.85;;;;;;;;;;5021984;28;20417;-72
2023/12/18 01:50:42;;;;;;;21.92;5.90;;;;;;;;;;5009491;28;20504;-71
2023/12/18 01:53:08;;;;;;;17.45;5.78;;;;;;;;;;5024911;28;20082;-72
2023/12/18 01:55:34;;;;;;;15.48;5.22;;;;;;;;;;5028644;28;20037;-72
2023/12/18 02:00:41;;;;;;;18.23;5.38;;;;;;;;;;4987794;28;20800;-72
2023/12/18 02:03:10;;;;;;;15.55;5.22;;;;;;;;;;4992674;28;20042;-72
2023/12/18 02:05:37;;;;;;;17.60;5.30;;;;;;;;;;4986219;28;20121;-72
2023/12/18 02:08:03;;;;;;;16.80;5.05;;;;;;;;;;4980202;28;20061;-72
2023/12/18 02:10:29;;;;;;;13.57;5.95;;;;;;;;;;4989665;28;20410;-72
2023/12/18 02:12:55;;;;;;;12.40;4.80;;;;;;;;;;4983423;28;20043;-71
2023/12/18 02:15:21;;;;;;;28.80;6.35;;;;;;;;;;4978807;28;20151;-71
2023/12/18 02:17:47;;;;;;;18.48;5.20;;;;;;;;;;4990029;28;20046;-72
2023/12/18 02:20:13;;;;;;;15.93;5.63;;;;;;;;;;4984333;28;20054;-71
2023/12/18 02:22:48;;;;;;;21.20;6.38;;;;;;;;;;4981076;28;20038;-71
2023/12/18 02:25:19;;;;;;;25.52;6.68;;;;;;;;;;4982961;28;20047;-72
2023/12/18 02:27:46;;;;;;;20.48;6.38;;;;;;;;;;4985356;28;20506;-72
2023/12/18 02:30:16;;;;;;;14.38;5.30;;;;;;;;;;4981313;28;20094;-72
2023/12/18 02:32:42;;;;;;;16.77;5.88;;;;;;;;;;4983169;28;20042;-72
2023/12/18 02:35:08;;;;;;;16.10;5.93;;;;;;;;;;4986514;28;20057;-72
2023/12/18 02:37:34;;;;;;;20.80;5.10;;;;;;;;;;4982882;28;20039;-72
2023/12/18 02:40:00;;;;;;;26.83;6.18;;;;;;;;;;4981898;28;20403;-71
2023/12/18 02:42:26;;;;;;;19.23;6.22;;;;;;;;;;4984756;28;20046;-72
2023/12/18 02:44:53;;;;;;;16.20;5.95;;;;;;;;;;4978234;28;20038;-72
2023/12/18 02:47:19;;;;;;;14.40;4.35;;;;;;;;;;4982242;28;20129;-72
2023/12/18 02:49:45;;;;;;;19.85;5.82;;;;;;;;;;4982318;28;20137;-72
2023/12/18 02:52:11;;;;;;;16.75;5.45;;;;;;;;;;4987020;28;20410;-72
2023/12/18 02:54:37;;;;;;;11.60;5.20;;;;;;;;;;4987502;28;20042;-72
2023/12/18 02:57:03;;;;;;;20.80;6.63;;;;;;;;;;4973844;28;20057;-71
2023/12/18 02:59:31;;;;;;;21.50;6.30;;;;;;;;;;4982739;28;20141;-72
2023/12/18 03:01:57;;;;;;;19.50;6.15;;;;;;;;;;4983942;28;20471;-71
2023/12/18 03:04:43;;;;;;;19.80;6.40;;;;;;;;;;4987814;28;20058;-72
2023/12/18 03:07:09;;;;;;;20.83;6.15;;;;;;;;;;4966780;28;20100;-72
2023/12/18 03:09:35;;;;;;;16.50;5.18;;;;;;;;;;4988129;28;20068;-71
2023/12/18 03:12:01;;;;;;;13.48;5.20;;;;;;;;;;4983107;28;20054;-72
2023/12/18 03:14:28;;;;;;;17.17;5.30;;;;;;;;;;4988090;28;20038;-72
2023/12/18 03:16:54;;;;;;;20.08;5.70;;;;;;;;;;4985195;28;20487;-72
2023/12/18 03:19:20;;;;;;;22.92;5.78;;;;;;;;;;4984961;28;20054;-72
2023/12/18 03:21:46;;;;;;;24.92;7.05;;;;;;;;;;4985654;28;20050;-72
2023/12/18 03:24:13;;;;;;;16.50;5.85;;;;;;;;;;4980767;28;20386;-72
2023/12/18 03:26:39;;;;;;;15.57;5.25;;;;;;;;;;4984624;28;20379;-72
2023/12/18 03:29:05;;;;;;;16.90;6.07;;;;;;;;;;4980227;28;20045;-72
2023/12/18 03:31:31;;;;;;;21.63;5.32;;;;;;;;;;4986232;28;20058;-72
2023/12/18 03:34:00;;;;;;;18.55;5.10;;;;;;;;;;4983180;28;20042;-71
2023/12/18 03:36:26;;;;;;;13.43;5.68;;;;;;;;;;4977884;28;20596;-72
2023/12/18 03:38:52;;;;;;;13.05;4.82;;;;;;;;;;4979295;28;20051;-72
2023/12/18 03:41:18;;;;;;;20.52;6.15;;;;;;;;;;4975607;28;20073;-71
2023/12/18 03:43:44;;;;;;;20.05;6.47;;;;;;;;;;4976881;28;20485;-72
2023/12/18 03:46:10;;;;;;;15.20;5.03;;;;;;;;;;4978186;28;20053;-72
2023/12/18 03:48:36;;;;;;;14.25;5.35;;;;;;;;;;4979443;28;20046;-72
2023/12/18 03:51:05;;;;;;;19.05;5.20;;;;;;;;;;4979027;28;20050;-72
2023/12/18 03:53:31;;;;;;;20.55;6.28;;;;;;;;;;4985746;28;20046;-72
2023/12/18 03:55:57;;;;;;;20.80;5.10;;;;;;;;;;4987437;28;20395;-71
2023/12/18 03:58:23;;;;;;;16.27;5.65;;;;;;;;;;4985462;28;21409;-72
2023/12/18 04:00:49;;;;;;;19.13;5.40;;;;;;;;;;4983083;28;20569;-72
2023/12/18 04:03:15;;;;;;;16.58;5.40;;;;;;;;;;4984381;28;20089;-72
2023/12/18 04:05:41;;;;;;;20.20;5.45;;;;;;;;;;4984110;28;20057;-72
2023/12/18 04:08:07;;;;;;;13.90;5.47;;;;;;;;;;4984665;28;20122;-72
2023/12/18 04:10:33;;;;;;;22.48;5.53;;;;;;;;;;4981220;28;20050;-72
2023/12/18 04:12:59;;;;;;;15.10;5.30;;;;;;;;;;4984381;28;20438;-72
2023/12/18 04:15:26;;;;;;;20.60;6.03;;;;;;;;;;4983488;28;20053;-72
2023/12/18 04:17:55;;;;;;;18.65;5.88;;;;;;;;;;4989020;28;20042;-72
2023/12/18 04:20:21;;;;;;;21.23;6.45;;;;;;;;;;4985346;28;20043;-72
2023/12/18 04:22:47;;;;;;;18.88;5.40;;;;;;;;;;4979565;28;20046;-72
2023/12/18 04:25:13;;;;;;;16.40;5.60;;;;;;;;;;4979545;28;21795;-72
2023/12/18 04:27:39;;;;;;;14.68;5.05;;;;;;;;;;4981121;28;20387;-72
2023/12/18 04:30:05;;;;;;;20.38;5.65;;;;;;;;;;4982721;28;20046;-72
2023/12/18 04:32:31;;;;;;;19.27;5.75;;;;;;;;;;4978912;28;20042;-72
2023/12/18 04:34:57;;;;;;;18.30;6.43;;;;;;;;;;4982349;28;20049;-72
2023/12/18 04:37:23;;;;;;;19.95;6.75;;;;;;;;;;4983865;28;20046;-72
2023/12/18 04:39:49;;;;;;;19.15;6.65;;;;;;;;;;4981673;28;20049;-72
2023/12/18 04:42:15;;;;;;;18.05;6.50;;;;;;;;;;4982108;28;20043;-72
2023/12/18 04:44:41;;;;;;;15.32;5.60;;;;;;;;;;4983914;28;20402;-72
2023/12/18 04:47:07;;;;;;;21.92;6.68;;;;;;;;;;4980519;28;20146;-72
2023/12/18 04:49:33;;;;;;;19.15;5.97;;;;;;;;;;4979047;28;20050;-72
2023/12/18 04:51:59;;;;;;;25.83;6.65;;;;;;;;;;4982563;28;20050;-72
2023/12/18 04:54:25;;;;;;;25.90;6.82;;;;;;;;;;4979781;28;20399;-72
2023/12/18 04:56:51;;;;;;;18.40;6.47;;;;;;;;;;4980956;28;20125;-72
2023/12/18 04:59:17;;;;;;;17.67;5.47;;;;;;;;;;4980475;28;20057;-72
2023/12/18 05:01:43;;;;;;;23.13;6.70;;;;;;;;;;4977821;28;20112;-72
2023/12/18 05:04:09;;;;;;;22.00;7.00;;;;;;;;;;4978385;28;20050;-72
2023/12/18 05:06:35;;;;;;;32.25;7.28;;;;;;;;;;4976268;28;20045;-72
2023/12/18 05:09:01;;;;;;;25.85;7.45;;;;;;;;;;4977562;28;20050;-71
2023/12/18 05:11:27;;;;;;;25.15;7.32;;;;;;;;;;4981178;28;20050;-72
2023/12/18 05:13:53;;;;;;;22.23;5.45;;;;;;;;;;4980773;28;20081;-72
2023/12/18 05:16:19;;;;;;;19.10;5.93;;;;;;;;;;4979315;28;20042;-72
2023/12/18 05:18:45;;;;;;;24.65;6.75;;;;;;;;;;4979784;28;20050;-72
2023/12/18 05:21:12;;;;;;;16.58;6.72;;;;;;;;;;4979652;28;20133;-72
2023/12/18 05:23:38;;;;;;;21.58;6.13;;;;;;;;;;4978396;28;20125;-72
2023/12/18 05:26:10;;;;;;;22.90;6.82;;;;;;;;;;4978856;28;20034;-71
2023/12/18 05:28:36;;;;;;;37.75;7.85;;;;;;;;;;4978454;28;20042;-72
2023/12/18 05:31:02;;;;;;;16.60;5.75;;;;;;;;;;4981875;28;20100;-72
2023/12/18 05:33:28;;;;;;;23.27;6.13;;;;;;;;;;4979655;28;20145;-72
2023/12/18 05:35:54;;;;;;;23.15;6.97;;;;;;;;;;4980500;28;20053;-71
2023/12/18 05:38:20;;;;;;;20.65;5.70;;;;;;;;;;4983279;28;20038;-72
2023/12/18 05:40:46;;;;;;;23.45;6.13;;;;;;;;;;4981946;28;20050;-71
2023/12/18 05:43:12;;;;;;;25.38;7.75;;;;;;;;;;4982629;28;20042;-72
2023/12/18 05:45:38;;;;;;;18.45;6.13;;;;;;;;;;4982003;28;20096;-72
2023/12/18 05:48:04;;;;;;;23.00;6.13;;;;;;;;;;4979408;28;20442;-72
2023/12/18 05:50:30;;;;;;;20.33;6.28;;;;;;;;;;4980038;28;20054;-72
2023/12/18 05:52:56;;;;;;;22.15;5.97;;;;;;;;;;4980030;28;20078;-72
2023/12/18 05:55:23;;;;;;;21.17;5.93;;;;;;;;;;4980960;28;20050;-71
2023/12/18 05:57:49;;;;;;;23.55;6.05;;;;;;;;;;4992179;28;20372;-72
2023/12/18 06:00:15;;;;;;;18.65;6.00;;;;;;;;;;4984783;28;20046;-72
2023/12/18 06:02:41;;;;;;;21.75;6.40;;;;;;;;;;4989592;28;20101;-71
2023/12/18 06:05:08;;;;;;;18.95;6.50;;;;;;;;;;4982213;28;20074;-72
2023/12/18 06:07:34;;;;;;;22.17;7.65;;;;;;;;;;4980635;28;20050;-72
2023/12/18 06:10:00;;;;;;;19.73;6.38;;;;;;;;;;4982906;28;20050;-72
2023/12/18 06:12:26;;;;;;;32.38;12.30;;;;;;;;;;4981136;28;20148;-72
2023/12/18 06:14:52;;;;;;;26.02;6.07;;;;;;;;;;4980600;28;20057;-71
2023/12/18 06:17:18;;;;;;;24.02;6.63;;;;;;;;;;4982942;28;20529;-72
2023/12/18 06:19:44;;;;;;;22.58;6.70;;;;;;;;;;4979328;28;20046;-72
2023/12/18 06:22:11;;;;;;;20.98;6.38;;;;;;;;;;4984164;28;20053;-72
2023/12/18 06:24:39;;;;;;;16.60;5.65;;;;;;;;;;4982751;28;20038;-71
2023/12/18 06:27:05;;;;;;;14.80;5.95;;;;;;;;;;4979482;28;20369;-72
2023/12/18 06:29:31;;;;;;;23.42;6.53;;;;;;;;;;4981043;28;20140;-72
2023/12/18 06:31:57;;;;;;;21.38;6.45;;;;;;;;;;4978022;28;20173;-71
2023/12/18 06:34:30;;;;;;;18.67;7.22;;;;;;;;;;4980469;28;20108;-72
2023/12/18 06:36:56;;;;;;;18.63;6.20;;;;;;;;;;4977596;28;21235;-72
2023/12/18 06:39:22;;;;;;;21.08;6.03;;;;;;;;;;4979284;28;20351;-72
2023/12/18 06:41:48;;;;;;;22.05;6.25;;;;;;;;;;4981653;28;20061;-72
2023/12/18 06:44:14;;;;;;;23.40;5.80;;;;;;;;;;4981953;28;20498;-72
2023/12/18 06:46:40;;;;;;;23.45;5.95;;;;;;;;;;4978607;28;20053;-72
2023/12/18 06:49:06;;;;;;;21.77;7.15;;;;;;;;;;4985732;28;20045;-71
2023/12/18 06:51:32;;;;;;;20.80;6.30;;;;;;;;;;4982661;28;20042;-72
2023/12/18 06:53:58;;;;;;;30.08;7.03;;;;;;;;;;4980772;28;20141;-72
2023/12/18 06:56:24;;;;;;;20.42;6.47;;;;;;;;;;4976502;28;20054;-71
2023/12/18 06:58:50;;;;;;;25.02;5.75;;;;;;;;;;4981834;28;20054;-71
2023/12/18 07:01:16;;;;;;;25.33;7.00;;;;;;;;;;4982532;28;20046;-72
2023/12/18 07:03:42;;;;;;;28.08;7.25;;;;;;;;;;4986745;28;20405;-72
2023/12/18 07:06:09;;;;;;;26.60;7.03;;;;;;;;;;4982407;28;20049;-72
2023/12/18 07:08:35;;;;;;;22.77;6.28;;;;;;;;;;4987366;28;20049;-72
2023/12/18 07:11:01;;;;;;;21.13;6.50;;;;;;;;;;4982576;28;20224;-72
2023/12/18 07:13:27;;;;;;;22.90;7.05;;;;;;;;;;4978349;28;20442;-72
2023/12/18 07:15:53;;;;;;;24.00;6.38;;;;;;;;;;4985986;28;20104;-71
2023/12/18 07:18:25;;;;;;;24.23;6.70;;;;;;;;;;4982262;28;20134;-72
2023/12/18 07:20:51;;;;;;;30.13;6.65;;;;;;;;;;4985870;28;20525;-71
2023/12/18 07:23:17;;;;;;;21.48;6.47;;;;;;;;;;4982979;28;20050;-72
2023/12/18 07:25:55;;;;;;;26.17;6.72;;;;;;;;;;4987492;28;20042;-72
2023/12/18 07:28:21;;;;;;;20.85;6.97;;;;;;;;;;4988109;28;20088;-71
2023/12/18 07:30:47;;;;;;;27.23;7.00;;;;;;;;;;4987612;28;20054;-72
2023/12/18 07:33:13;;;;;;;29.33;6.45;;;;;;;;;;4989507;28;20101;-71
2023/12/18 07:35:39;;;;;;;17.80;7.03;;;;;;;;;;4987709;28;20046;-71
2023/12/18 07:38:05;;;;;;;24.48;6.95;;;;;;;;;;4990482;28;20123;-72
2023/12/18 07:40:34;;;;;;;20.88;6.85;;;;;;;;;;4985385;28;20135;-72
2023/12/18 07:43:00;;;;;;;27.33;7.75;;;;;;;;;;4977599;28;20062;-71
2023/12/18 07:45:26;;;;;;;27.98;7.15;;;;;;;;;;4988225;28;20082;-71
2023/12/18 07:47:52;;;;;;;32.60;7.93;;;;;;;;;;4987548;28;20052;-72
2023/12/18 07:50:18;;;;;;;21.92;7.00;;;;;;;;;;4991257;28;20069;-72
2023/12/18 07:52:44;;;;;;;23.38;8.20;;;;;;;;;;4987149;28;20046;-72
2023/12/18 07:55:10;;;;;;;23.10;9.05;;;;;;;;;;4988641;28;20038;-72
2023/12/18 07:57:36;;;;;;;27.15;7.97;;;;;;;;;;4990472;28;20077;-72
2023/12/18 08:00:03;;;;;;;21.58;7.78;;;;;;;;;;4993485;28;20065;-71
2023/12/18 08:02:29;;;;;;;22.27;8.27;;;;;;;;;;4993920;28;20442;-72
2023/12/18 08:04:55;;;;;;;23.90;7.80;;;;;;;;;;4994408;28;20046;-71
2023/12/18 08:07:21;;;;;;;25.92;8.68;;;;;;;;;;4992259;28;20058;-71
2023/12/18 08:09:47;;;;;;;24.48;8.98;;;;;;;;;;4991070;28;20493;-71
2023/12/18 08:12:13;;;;;;;28.35;8.13;;;;;;;;;;4988770;28;20050;-71
2023/12/18 08:14:43;;;;;;;25.73;8.82;;;;;;;;;;4985261;28;20035;-72
2023/12/18 08:17:09;;;;;;;22.08;8.13;;;;;;;;;;4986747;28;20096;-71
2023/12/18 08:19:35;;;;;;;20.73;7.72;;;;;;;;;;4988605;28;20046;-71
2023/12/18 08:22:01;;;;;;;30.85;8.63;;;;;;;;;;4977717;28;20121;-72
2023/12/18 08:24:27;;;;;;;22.08;6.82;;;;;;;;;;4992594;28;20483;-71
2023/12/18 08:26:53;;;;;;;24.40;8.70;;;;;;;;;;4987103;28;20039;-73
2023/12/18 08:29:19;;;;;;;26.05;7.45;;;;;;;;;;4978001;28;20058;-71
2023/12/18 08:31:45;;;;;;;19.60;6.95;;;;;;;;;;4985069;28;20094;-72
2023/12/18 08:34:12;;;;;;;29.15;7.47;;;;;;;;;;4985745;28;20057;-71
2023/12/18 08:36:38;;;;;;;16.70;5.80;;;;;;;;;;4986295;28;20391;-71
2023/12/18 08:39:08;;;;;;;19.55;7.05;;;;;;;;;;4989311;28;20498;-71
2023/12/18 08:41:34;;;;;;;21.00;7.45;;;;;;;;;;4992826;28;20042;-73
2023/12/18 08:44:00;;;;;;;26.45;7.68;;;;;;;;;;4987480;28;20945;-71
2023/12/18 08:46:26;;;;;;;25.90;7.20;;;;;;;;;;4984515;28;20129;-71
2023/12/18 08:48:52;;;;;;;24.77;6.70;;;;;;;;;;4989725;28;20478;-71
2023/12/18 08:51:18;;;;;;;27.95;7.65;;;;;;;;;;4988948;28;20105;-72
2023/12/18 08:53:47;;;;;;;15.82;6.43;;;;;;;;;;4987855;28;20042;-71
2023/12/18 08:56:13;;;;;;;22.80;7.05;;;;;;;;;;4989459;28;20473;-71
2023/12/18 08:58:52;;;;;;;24.30;7.90;;;;;;;;;;4981461;28;20070;-72
2023/12/18 09:01:18;;;;;;;22.05;7.10;;;;;;;;;;4988532;28;20097;-71
2023/12/18 09:03:44;;;;;;;22.75;8.02;;;;;;;;;;4986875;28;20054;-72
2023/12/18 09:06:11;;;;;;;26.60;8.07;;;;;;;;;;4985731;28;20051;-71
2023/12/18 09:08:41;;;;;;;31.10;7.28;;;;;;;;;;4989124;28;20525;-72
2023/12/18 09:11:07;;;;;;;24.70;7.40;;;;;;;;;;4988357;28;20050;-73
2023/12/18 09:13:35;;;;;;;18.27;6.85;;;;;;;;;;4990916;28;20518;-74
2023/12/18 09:16:02;;;;;;;23.75;7.03;;;;;;;;;;4989643;28;20054;-72
2023/12/18 09:18:29;;;;;;;19.75;5.72;;;;;;;;;;4986603;28;20039;-72
2023/12/18 09:20:55;;;;;;;24.35;7.72;;;;;;;;;;4985484;28;20054;-71
2023/12/18 09:23:21;;;;;;;24.02;7.18;;;;;;;;;;4984174;28;20218;-71
2023/12/18 09:25:47;;;;;;;31.48;8.15;;;;;;;;;;4987143;28;20137;-72
2023/12/18 09:28:13;;;;;;;25.98;7.05;;;;;;;;;;4973023;28;20039;-72
2023/12/18 09:30:40;;;;;;;30.42;7.72;;;;;;;;;;4988115;28;20566;-71
2023/12/18 09:33:06;;;;;;;21.17;6.40;;;;;;;;;;4989984;28;20102;-72
2023/12/18 09:35:32;;;;;;;17.27;6.53;;;;;;;;;;4986278;28;20108;-72
2023/12/18 09:38:02;;;;;;;18.38;6.18;;;;;;;;;;4989830;28;20155;-72
2023/12/18 09:40:28;;;;;;;26.52;7.18;;;;;;;;;;4982521;28;20069;-72
2023/12/18 09:42:56;;;;;;;25.15;6.65;;;;;;;;;;4986317;28;20038;-72
2023/12/18 09:45:23;;;;;;;29.40;7.00;;;;;;;;;;4985846;28;20050;-71
2023/12/18 09:47:53;;;;;;;28.58;7.45;;;;;;;;;;4973852;28;20046;-71
2023/12/18 09:50:19;;;;;;;23.63;6.03;;;;;;;;;;4981970;28;20074;-71
2023/12/18 09:52:51;;;;;;;23.23;6.80;;;;;;;;;;4983341;28;20490;-71
2023/12/18 09:55:18;;;;;;;23.50;6.32;;;;;;;;;;4984314;28;20039;-71
2023/12/18 09:57:44;;;;;;;24.95;7.93;;;;;;;;;;4987512;28;20077;-71
2023/12/18 10:00:12;;;;;;;20.75;5.50;;;;;;;;;;4981769;28;20055;-72
2023/12/18 10:02:39;;;;;;;27.65;6.55;;;;;;;;;;4984934;28;20089;-71
2023/12/18 10:05:06;;;;;;;25.15;7.00;;;;;;;;;;4986747;28;20053;-72
2023/12/18 10:07:32;;;;;;;26.23;6.78;;;;;;;;;;4980361;28;20395;-71
2023/12/18 10:09:59;;;;;;;20.88;6.10;;;;;;;;;;4979159;28;20070;-71
2023/12/18 10:12:25;;;;;;;26.15;6.05;;;;;;;;;;4989198;28;20114;-71
2023/12/18 10:14:51;;;;;;;24.95;6.22;;;;;;;;;;4983809;28;20085;-70
2023/12/18 10:17:18;;;;;;;15.73;5.97;;;;;;;;;;4984338;28;20074;-71
2023/12/18 10:19:44;;;;;;;21.08;7.50;;;;;;;;;;4982663;28;20054;-71
2023/12/18 10:22:13;;;;;;;22.10;6.45;;;;;;;;;;4982936;28;20535;-71
2023/12/18 10:24:43;;;;;;;17.88;6.78;;;;;;;;;;4978695;28;20093;-71
2023/12/18 10:27:12;;;;;;;24.35;6.72;;;;;;;;;;4986716;28;20082;-71
2023/12/18 10:29:38;;;;;;;13.82;6.25;;;;;;;;;;4987240;28;20062;-71
2023/12/18 10:32:04;;;;;;;23.13;8.15;;;;;;;;;;4985844;28;20050;-71
2023/12/18 10:34:36;;;;;;;28.70;8.75;;;;;;;;;;4986962;28;20367;-71
2023/12/18 10:37:03;;;;;;;16.95;6.90;;;;;;;;;;4984718;28;20058;-71
2023/12/18 10:39:30;;;;;;;27.88;8.00;;;;;;;;;;4979065;28;20097;-71
2023/12/18 10:42:04;;;;;;;21.92;6.97;;;;;;;;;;4978764;28;20125;-71
2023/12/18 10:44:33;;;;;;;27.63;8.98;;;;;;;;;;4983491;28;20066;-71
2023/12/18 10:46:59;;;;;;;19.35;7.55;;;;;;;;;;4987961;28;20050;-71
2023/12/18 10:49:27;;;;;;;19.27;6.85;;;;;;;;;;4985173;28;20046;-71
2023/12/18 10:51:54;;;;;;;19.45;6.25;;;;;;;;;;4986755;28;20062;-71
2023/12/18 10:54:21;;;;;;;24.13;7.10;;;;;;;;;;4985490;28;20529;-71
2023/12/18 10:56:48;;;;;;;20.73;7.10;;;;;;;;;;4983229;28;20057;-72
2023/12/18 10:59:15;;;;;;;20.02;5.88;;;;;;;;;;4983125;28;20065;-71
2023/12/18 11:01:41;;;;;;;20.60;5.40;;;;;;;;;;4981733;28;20042;-71
2023/12/18 11:04:08;;;;;;;26.25;5.75;;;;;;;;;;4985658;28;20453;-72
2023/12/18 11:06:34;;;;;;;19.77;5.38;;;;;;;;;;4984608;28;20138;-72
2023/12/18 11:09:01;;;;;;;20.02;6.43;;;;;;;;;;4988565;28;20443;-72
2023/12/18 11:11:27;;;;;;;21.80;6.63;;;;;;;;;;4985920;28;20085;-71
2023/12/18 11:13:53;;;;;;;23.48;5.10;;;;;;;;;;4985912;28;20097;-71
2023/12/18 11:16:36;;;;;;;20.55;5.68;;;;;;;;;;4983532;28;20035;-72
2023/12/18 11:19:22;;;;;;;19.30;5.67;;;;;;;;;;4979688;28;20054;-72
2023/12/18 11:21:49;;;;;;;21.85;6.32;;;;;;;;;;4980760;28;20050;-71
2023/12/18 11:24:15;;;;;;;21.35;6.00;;;;;;;;;;4980222;28;21180;-72
2023/12/18 11:26:42;;;;;;;18.70;5.50;;;;;;;;;;4981545;28;20053;-71
2023/12/18 11:29:27;;;;;;;25.48;6.60;;;;;;;;;;4988757;28;20402;-71
2023/12/18 11:31:53;;;;;;;21.83;5.95;;;;;;;;;;4987538;28;20038;-71
2023/12/18 11:34:21;;;;;;;26.35;6.53;;;;;;;;;;4991376;28;20061;-71
2023/12/18 11:36:48;;;;;;;21.10;6.40;;;;;;;;;;4981848;28;20074;-72
2023/12/18 11:39:14;;;;;;;20.83;6.22;;;;;;;;;;4983968;28;20038;-71
2023/12/18 11:41:44;;;;;;;22.40;6.10;;;;;;;;;;4986680;28;20105;-72
2023/12/18 11:44:14;;;;;;;21.98;7.20;;;;;;;;;;4984572;28;20049;-72
2023/12/18 11:46:41;;;;;;;21.13;6.45;;;;;;;;;;4983283;28;20494;-72
2023/12/18 11:49:08;;;;;;;17.08;5.55;;;;;;;;;;4984855;28;20042;-72
2023/12/18 11:51:34;;;;;;;16.38;4.97;;;;;;;;;;4985576;28;20065;-71
2023/12/18 11:54:01;;;;;;;19.83;5.10;;;;;;;;;;4986244;28;20397;-71
2023/12/18 11:56:28;;;;;;;21.85;6.45;;;;;;;;;;4991017;28;20394;-72
2023/12/18 11:58:57;;;;;;;21.25;6.28;;;;;;;;;;4987384;28;20054;-72
2023/12/18 12:01:24;;;;;;;19.52;6.05;;;;;;;;;;4985376;28;20628;-72
2023/12/18 12:03:51;;;;;;;28.00;7.40;;;;;;;;;;4985823;28;20097;-72
2023/12/18 12:06:17;;;;;;;23.38;5.55;;;;;;;;;;4986922;28;20057;-72
2023/12/18 12:08:50;;;;;;;27.23;6.32;;;;;;;;;;4986572;28;20474;-72
2023/12/18 12:11:16;;;;;;;21.63;5.43;;;;;;;;;;4978143;28;20192;-72
2023/12/18 12:13:42;;;;;;;24.65;6.20;;;;;;;;;;4983551;28;20054;-71
2023/12/18 12:16:08;;;;;;;26.08;6.32;;;;;;;;;;4981550;28;20046;-72
2023/12/18 12:18:35;;;;;;;16.20;5.95;;;;;;;;;;4978509;28;20057;-72
2023/12/18 12:21:01;;;;;;;22.48;7.10;;;;;;;;;;4984809;28;20783;-72
2023/12/18 12:23:28;;;;;;;17.05;5.07;;;;;;;;;;4987646;28;20046;-71
2023/12/18 12:26:01;;;;;;;16.13;5.72;;;;;;;;;;4985923;28;20046;-72
2023/12/18 12:28:27;;;;;;;;;;;;;;;;;;4980665;28;20050;-72
2023/12/18 12:30:53;;;;;;;26.10;6.47;;;;;;;;;;4983673;28;19929;-72
2023/12/18 12:33:19;;;;;;;17.05;6.07;;;;;;;;;;4985217;28;20046;-72
2023/12/18 12:35:45;;;;;;;22.05;5.22;;;;;;;;;;4989281;28;20104;-72
2023/12/18 12:38:16;;;;;;;26.70;6.93;;;;;;;;;;4988695;28;20050;-72
2023/12/18 12:40:43;;;;;;;16.63;5.63;;;;;;;;;;4989379;28;20050;-71
2023/12/18 12:43:12;;;;;;;28.77;6.00;;;;;;;;;;4986555;28;20050;-72
2023/12/18 12:45:42;;;;;;;20.17;6.57;;;;;;;;;;4986095;28;20057;-72
2023/12/18 12:48:09;;;;;;;18.33;6.18;;;;;;;;;;4984423;28;20050;-72
2023/12/18 12:50:37;;;;;;;17.10;5.93;;;;;;;;;;4983153;28;20039;-72
2023/12/18 12:53:03;;;;;;;16.98;6.85;;;;;;;;;;4988069;28;20163;-72
2023/12/18 12:55:29;;;;;;;25.15;6.80;;;;;;;;;;4982904;28;20414;-72
2023/12/18 12:57:55;;;;;;;16.65;5.50;;;;;;;;;;4980364;28;20137;-72
2023/12/18 13:00:22;;;;;;;19.27;6.35;;;;;;;;;;4984257;28;20096;-72
2023/12/18 13:02:48;;;;;;;21.52;5.85;;;;;;;;;;4988744;28;20062;-72
2023/12/18 13:05:14;;;;;;;20.58;5.45;;;;;;;;;;4981758;28;20046;-72
2023/12/18 13:07:40;;;;;;;25.00;6.20;;;;;;;;;;4984780;28;20066;-72
2023/12/18 13:10:07;;;;;;;19.58;6.65;;;;;;;;;;4985628;28;20046;-72
2023/12/18 13:12:33;;;;;;;25.98;6.50;;;;;;;;;;4988422;28;20390;-71
2023/12/18 13:14:59;;;;;;;27.80;7.10;;;;;;;;;;4982019;28;20050;-71
2023/12/18 13:17:26;;;;;;;24.75;6.43;;;;;;;;;;4987741;28;20049;-72
2023/12/18 13:19:52;;;;;;;20.50;6.53;;;;;;;;;;4987433;28;20050;-71
2023/12/18 13:22:18;;;;;;;26.80;6.43;;;;;;;;;;4985763;28;20058;-71
2023/12/18 13:24:44;;;;;;;22.80;5.75;;;;;;;;;;4984224;28;20050;-71
2023/12/18 13:27:10;;;;;;;24.88;5.88;;;;;;;;;;4990763;28;20046;-71
2023/12/18 13:29:41;;;;;;;20.90;5.55;;;;;;;;;;4985633;28;20058;-71
2023/12/18 13:32:13;;;;;;;19.25;6.22;;;;;;;;;;4988124;28;20046;-71
2023/12/18 13:34:40;;;;;;;17.83;5.70;;;;;;;;;;4986347;28;20403;-71
2023/12/18 13:37:07;;;;;;;14.63;6.10;;;;;;;;;;4988419;28;20074;-70
2023/12/18 13:39:36;;;;;;;24.45;6.53;;;;;;;;;;5005065;28;20114;-71
2023/12/18 13:42:02;;;;;;;19.45;5.97;;;;;;;;;;4979703;28;20057;-71
2023/12/18 13:44:28;;;;;;;23.13;6.10;;;;;;;;;;4986452;28;20428;-71
2023/12/18 13:46:55;;;;;;;19.45;5.45;;;;;;;;;;4972077;28;20042;-71
2023/12/18 13:49:21;;;;;;;34.15;6.88;;;;;;;;;;4986856;28;20463;-71
2023/12/18 13:51:47;;;;;;;19.08;6.45;;;;;;;;;;4986473;28;20050;-71
2023/12/18 13:54:13;;;;;;;32.25;7.32;;;;;;;;;;4987149;28;20113;-71
2023/12/18 13:56:41;;;;;;;27.33;7.47;;;;;;;;;;4986153;28;20046;-71
2023/12/18 13:59:07;;;;;;;27.02;7.47;;;;;;;;;;4978317;28;20622;-71
2023/12/18 14:01:37;;;;;;;21.10;7.43;;;;;;;;;;4981218;28;20502;-71
2023/12/18 14:04:06;;;;;;;25.92;7.07;;;;;;;;;;4986238;28;20499;-71
2023/12/18 14:06:32;;;;;;;20.73;6.43;;;;;;;;;;4991173;28;20053;-72
2023/12/18 14:09:01;;;;;;;22.55;6.88;;;;;;;;;;4985258;28;20488;-71
2023/12/18 14:11:27;;;;;;;18.40;6.05;;;;;;;;;;4978861;28;20078;-71
2023/12/18 14:13:53;;;;;;;21.67;6.45;;;;;;;;;;4973954;28;20078;-71
2023/12/18 14:16:19;;;;;;;24.70;8.75;;;;;;;;;;4971996;28;20128;-71
2023/12/18 14:18:53;;;;;;;33.67;9.55;;;;;;;;;;4986385;28;20042;-71
2023/12/18 14:21:19;;;;;;;24.08;8.10;;;;;;;;;;4988780;28;20060;-71
2023/12/18 14:23:45;;;;;;;21.90;7.50;;;;;;;;;;4978265;28;20129;-71
2023/12/18 14:26:11;;;;;;;23.08;7.90;;;;;;;;;;4979858;28;20077;-71
2023/12/18 14:28:40;;;;;;;25.35;7.75;;;;;;;;;;4985784;28;20042;-72
2023/12/18 14:31:06;;;;;;;18.13;6.35;;;;;;;;;;4981353;28;20132;-71
2023/12/18 14:33:32;;;;;;;21.92;7.07;;;;;;;;;;4991231;28;20042;-71